createdAt,value
2022-10-02T00:00:37.715Z,1.30
2022-10-02T00:01:58.374Z,1.33
2022-10-02T00:03:10.936Z,1.13
2022-10-02T00:04:36.519Z,1.08
2022-10-02T00:05:46.467Z,1.23
2022-10-02T00:06:51.278Z,1.67
2022-10-02T00:08:12.533Z,1.60
2022-10-02T00:09:49.365Z,1.40
2022-10-02T00:10:57.551Z,1.55
2022-10-02T00:12:01.329Z,1.60
2022-10-02T00:13:13.152Z,2.53
2022-10-02T00:14:23.506Z,1.88
2022-10-02T00:16:42.546Z,1.50
2022-10-02T00:17:48.093Z,3.08
2022-10-02T00:18:53.648Z,2.38
2022-10-02T00:19:56.824Z,3.75
2022-10-02T00:21:02.154Z,1.20
2022-10-02T00:22:37.544Z,1.10
2022-10-02T00:23:56.699Z,2.05
2022-10-02T00:25:21.120Z,1.80
2022-10-02T00:26:41.115Z,1.40
2022-10-02T00:27:56.003Z,4.90
2022-10-02T00:29:05.188Z,5.30
2022-10-02T00:30:11.856Z,1.75
2022-10-02T00:31:24.560Z,4.40
2022-10-02T00:32:45.389Z,1.48
2022-10-02T00:34:22.086Z,1.60
2022-10-02T00:35:48.574Z,1.60
2022-10-02T00:37:10.762Z,1.42
2022-10-02T00:38:22.229Z,1.40
2022-10-02T00:39:32.873Z,1.40
2022-10-02T00:41:08.663Z,2.97
2022-10-02T00:42:45.171Z,1.52
2022-10-02T00:44:06.213Z,3.22
2022-10-02T00:45:30.699Z,1.40
2022-10-02T00:46:38.907Z,2.35
2022-10-02T00:47:59.531Z,1.52
2022-10-02T00:49:19.561Z,3.42
2022-10-02T00:50:47.168Z,1.40
2022-10-02T00:52:30.479Z,2.22
2022-10-02T00:54:04.349Z,4.85
2022-10-02T00:55:31.137Z,2.42
2022-10-02T00:56:36.953Z,1.85
2022-10-02T00:57:53.365Z,3.45
2022-10-02T00:59:14.531Z,4.20
2022-10-02T01:00:19.533Z,2.15
2022-10-02T01:01:41.735Z,1.67
2022-10-02T01:02:58.937Z,1.60
2022-10-02T01:04:09.379Z,1.63
2022-10-02T01:05:12.517Z,2.45
2022-10-02T01:06:15.121Z,1.33
2022-10-02T01:07:17.747Z,1.80
2022-10-02T01:08:21.766Z,1.70
2022-10-02T01:09:25.744Z,3.47
2022-10-02T01:10:30.898Z,1.95
2022-10-02T01:11:35.824Z,2.88
2022-10-02T01:12:44.236Z,1.77
2022-10-02T01:13:52.761Z,1.85
2022-10-02T01:14:55.431Z,2.35
2022-10-02T01:16:00.987Z,2.83
2022-10-02T01:17:21.723Z,1.77
2022-10-02T01:18:49.534Z,3.50
2022-10-02T01:19:53.458Z,3.40
2022-10-02T01:21:05.420Z,1.70
2022-10-02T01:22:25.403Z,3.05
2022-10-02T01:23:38.446Z,2.15
2022-10-02T01:24:51.211Z,3.08
2022-10-02T01:25:54.118Z,1.88
2022-10-02T01:26:56.752Z,1.85
2022-10-02T01:27:59.755Z,1.83
2022-10-02T01:29:09.584Z,3.03
2022-10-02T01:30:18.625Z,1.45
2022-10-02T01:31:22.844Z,2.78
2022-10-02T01:32:26.997Z,4.65
2022-10-02T01:33:32.173Z,2.20
2022-10-02T01:34:35.216Z,1.83
2022-10-02T01:35:39.710Z,2.83
2022-10-02T01:36:42.767Z,1.73
2022-10-02T01:37:45.735Z,1.65
2022-10-02T01:38:50.481Z,3.25
2022-10-02T01:39:53.374Z,1.80
2022-10-02T01:40:56.045Z,2.33
2022-10-02T01:42:03.174Z,2.65
2022-10-02T01:43:10.078Z,1.75
2022-10-02T01:44:14.076Z,3.72
2022-10-02T01:45:16.821Z,1.52
2022-10-02T01:46:41.741Z,1.85
2022-10-02T01:47:52.020Z,2.28
2022-10-02T01:50:19.548Z,3.00
2022-10-02T01:51:33.966Z,2.42
2022-10-02T01:53:02.771Z,3.35
2022-10-02T01:54:25.224Z,3.50
2022-10-02T01:55:41.912Z,4.88
2022-10-02T01:58:09.482Z,4.72
2022-10-02T01:59:12.033Z,5.68
2022-10-02T02:00:20.389Z,1.90
2022-10-02T02:01:26.389Z,5.38
2022-10-02T02:02:50.738Z,3.00
2022-10-02T02:04:13.839Z,2.13
2022-10-02T02:05:25.188Z,3.03
2022-10-02T02:06:40.317Z,2.85
2022-10-02T02:08:31.359Z,3.45
2022-10-02T02:09:45.721Z,4.05
2022-10-02T02:10:52.468Z,3.78
2022-10-02T02:12:31.650Z,2.15
2022-10-02T02:14:01.933Z,3.33
2022-10-02T02:15:19.124Z,3.72
2022-10-02T02:16:32.054Z,2.88
2022-10-02T02:17:51.317Z,2.47
2022-10-02T02:19:14.836Z,2.28
2022-10-02T02:20:33.337Z,2.58
2022-10-02T02:21:44.489Z,3.10
2022-10-02T02:22:52.697Z,2.90
2022-10-02T02:23:59.053Z,2.10
2022-10-02T02:25:10.377Z,3.50
2022-10-02T02:26:17.168Z,4.20
2022-10-02T02:27:25.688Z,3.58
2022-10-02T02:28:31.566Z,3.08
2022-10-02T02:29:37.103Z,3.00
2022-10-02T02:30:44.378Z,3.47
2022-10-02T02:31:52.643Z,3.45
2022-10-02T02:33:01.979Z,3.30
2022-10-02T02:34:11.501Z,3.45
2022-10-02T02:35:27.493Z,3.70
2022-10-02T02:36:39.249Z,5.50
2022-10-02T02:37:44.625Z,3.00
2022-10-02T02:38:52.882Z,3.75
2022-10-02T02:40:01.846Z,6.47
2022-10-02T02:41:09.601Z,3.08
2022-10-02T02:42:17.775Z,3.42
2022-10-02T02:43:29.751Z,3.40
2022-10-02T02:44:44.764Z,5.22
2022-10-02T02:46:14.506Z,5.93
2022-10-02T02:47:22.819Z,4.22
2022-10-02T02:48:30.458Z,4.22
2022-10-02T02:49:57.256Z,3.03
2022-10-02T02:51:08.808Z,5.63
2022-10-02T02:52:17.603Z,3.30
2022-10-02T02:53:41.644Z,5.70
2022-10-02T02:54:49.659Z,2.72
2022-10-02T02:55:59.278Z,5.38
2022-10-02T02:57:05.274Z,4.63
2022-10-02T02:58:17.337Z,2.55
2022-10-02T02:59:22.437Z,2.28
2022-10-02T03:00:26.524Z,3.05
2022-10-02T03:01:29.252Z,4.20
2022-10-02T03:02:32.126Z,2.22
2022-10-02T03:03:34.705Z,8.77
2022-10-02T03:04:37.500Z,8.10
2022-10-02T03:05:45.402Z,2.05
2022-10-02T03:06:55.277Z,2.45
2022-10-02T03:08:05.842Z,3.13
2022-10-02T03:09:13.877Z,2.92
2022-10-02T03:10:38.351Z,3.72
2022-10-02T03:12:09.324Z,2.95
2022-10-02T03:13:30.820Z,2.45
2022-10-02T03:14:43.220Z,2.72
2022-10-02T03:16:03.945Z,5.38
2022-10-02T03:17:39.748Z,2.63
2022-10-02T03:19:50.637Z,3.00
2022-10-02T03:21:05.328Z,5.35
2022-10-02T03:22:41.470Z,2.72
2022-10-02T03:23:53.228Z,2.50
2022-10-02T03:25:14.034Z,6.47
2022-10-02T03:26:35.252Z,2.47
2022-10-02T03:27:45.753Z,3.00
2022-10-02T03:28:57.598Z,2.55
2022-10-02T03:30:02.384Z,3.85
2022-10-02T03:31:05.504Z,2.40
2022-10-02T03:32:09.551Z,6.40
2022-10-02T03:34:17.682Z,4.30
2022-10-02T03:35:23.074Z,4.28
2022-10-02T03:36:26.449Z,2.70
2022-10-02T03:37:29.968Z,2.63
2022-10-02T03:38:34.177Z,3.90
2022-10-02T03:39:44.461Z,4.18
2022-10-02T03:40:46.891Z,5.43
2022-10-02T03:41:49.545Z,3.63
2022-10-02T03:42:54.110Z,5.88
2022-10-02T03:43:56.656Z,2.22
2022-10-02T03:45:01.467Z,2.38
2022-10-02T03:46:04.102Z,3.92
2022-10-02T03:47:06.697Z,2.33
2022-10-02T03:48:09.810Z,2.15
2022-10-02T03:49:12.407Z,4.57
2022-10-02T03:50:17.827Z,2.70
2022-10-02T03:51:21.324Z,3.70
2022-10-02T03:52:24.579Z,5.68
2022-10-02T03:53:36.506Z,2.78
2022-10-02T03:54:39.013Z,4.97
2022-10-02T03:55:46.897Z,4.28
2022-10-02T03:56:58.079Z,3.60
2022-10-02T03:58:10.806Z,3.40
2022-10-02T04:00:27.719Z,4.53
2022-10-02T04:01:37.962Z,5.15
2022-10-02T04:02:48.742Z,2.90
2022-10-02T04:03:57.915Z,2.30
2022-10-02T04:05:23.904Z,2.28
2022-10-02T04:06:46.230Z,4.65
2022-10-02T04:07:52.998Z,2.20
2022-10-02T04:09:11.945Z,5.43
2022-10-02T04:10:20.817Z,4.15
2022-10-02T04:11:32.175Z,2.45
2022-10-02T04:12:42.136Z,10.15
2022-10-02T04:14:02.890Z,7.05
2022-10-02T04:15:15.194Z,3.58
2022-10-02T04:16:40.308Z,2.20
2022-10-02T04:18:10.900Z,2.38
2022-10-02T04:19:25.372Z,2.53
2022-10-02T04:20:42.055Z,2.58
2022-10-02T04:22:57.760Z,1.80
2022-10-02T04:24:10.182Z,2.72
2022-10-02T04:25:29.387Z,3.25
2022-10-02T04:26:37.465Z,4.18
2022-10-02T04:27:45.435Z,3.17
2022-10-02T04:28:54.971Z,4.53
2022-10-02T04:30:01.708Z,4.07
2022-10-02T04:31:11.748Z,2.70
2022-10-02T04:33:20.072Z,3.30
2022-10-02T04:34:25.218Z,3.78
2022-10-02T04:35:46.247Z,2.33
2022-10-02T04:37:06.589Z,2.63
2022-10-02T04:38:21.170Z,4.18
2022-10-02T04:40:07.215Z,2.70
2022-10-02T04:41:21.725Z,2.28
2022-10-02T04:42:41.344Z,3.13
2022-10-02T04:43:52.982Z,2.78
2022-10-02T04:44:55.405Z,2.90
2022-10-02T04:46:06.939Z,5.07
2022-10-02T04:47:33.591Z,2.33
2022-10-02T04:48:54.575Z,3.60
2022-10-02T04:50:30.643Z,3.83
2022-10-02T04:52:01.720Z,2.92
2022-10-02T04:53:30.785Z,5.07
2022-10-02T04:54:54.747Z,4.93
2022-10-02T04:56:12.901Z,7.97
2022-10-02T04:57:39.919Z,7.93
2022-10-02T04:59:04.005Z,6.60
2022-10-02T05:00:25.502Z,3.72
2022-10-02T05:01:41.623Z,3.38
2022-10-02T05:03:05.326Z,5.95
2022-10-02T05:04:26.594Z,4.22
2022-10-02T05:06:05.811Z,3.65
2022-10-02T05:07:55.409Z,4.78
2022-10-02T05:09:29.346Z,6.63
2022-10-02T05:11:09.294Z,6.95
2022-10-02T05:12:38.004Z,5.55
2022-10-02T05:14:02.240Z,5.10
2022-10-02T05:15:16.508Z,5.22
2022-10-02T05:16:37.972Z,6.75
2022-10-02T05:18:08.703Z,5.70
2022-10-02T05:19:57.714Z,6.65
2022-10-02T05:21:26.518Z,5.60
2022-10-02T05:22:46.456Z,6.90
2022-10-02T05:24:20.002Z,4.93
2022-10-02T05:25:38.364Z,6.53
2022-10-02T05:26:47.142Z,4.43
2022-10-02T05:28:04.713Z,4.95
2022-10-02T05:29:21.413Z,4.85
2022-10-02T05:30:24.984Z,4.68
2022-10-02T05:31:55.865Z,5.38
2022-10-02T05:33:32.937Z,4.97
2022-10-02T05:34:47.596Z,3.67
2022-10-02T05:36:02.273Z,6.18
2022-10-02T05:37:35.986Z,4.32
2022-10-02T05:39:07.456Z,6.53
2022-10-02T05:40:15.640Z,5.57
2022-10-02T05:41:35.997Z,3.05
2022-10-02T05:42:48.796Z,4.57
2022-10-02T05:44:06.340Z,3.45
2022-10-02T05:45:35.025Z,8.68
2022-10-02T05:46:44.992Z,6.40
2022-10-02T05:47:49.909Z,7.15
2022-10-02T05:49:17.974Z,4.55
2022-10-02T05:50:29.967Z,4.15
2022-10-02T05:51:38.108Z,4.78
2022-10-02T05:52:46.719Z,4.82
2022-10-02T05:54:05.019Z,6.10
2022-10-02T05:55:26.134Z,4.65
2022-10-02T05:56:43.427Z,5.97
2022-10-02T05:58:26.462Z,4.68
2022-10-02T05:59:47.157Z,3.42
2022-10-02T06:01:03.508Z,4.30
2022-10-02T06:03:39.666Z,6.55
2022-10-02T06:04:49.553Z,4.15
2022-10-02T06:05:59.002Z,4.18
2022-10-02T06:07:18.222Z,3.47
2022-10-02T06:08:31.785Z,2.95
2022-10-02T06:09:40.298Z,4.88
2022-10-02T06:10:48.618Z,6.18
2022-10-02T06:12:00.118Z,5.38
2022-10-02T06:13:10.835Z,3.20
2022-10-02T06:14:31.115Z,3.30
2022-10-02T06:15:38.305Z,4.05
2022-10-02T06:16:48.298Z,3.90
2022-10-02T06:17:56.932Z,3.17
2022-10-02T06:19:08.252Z,4.75
2022-10-02T06:20:37.949Z,5.40
2022-10-02T06:21:50.027Z,3.60
2022-10-02T06:23:06.363Z,4.97
2022-10-02T06:24:17.273Z,5.88
2022-10-02T06:25:49.683Z,4.13
2022-10-02T06:27:38.455Z,5.05
2022-10-02T06:28:48.118Z,5.82
2022-10-02T06:30:04.336Z,4.35
2022-10-02T06:31:06.745Z,7.53
2022-10-02T06:32:33.955Z,3.35
2022-10-02T06:33:36.570Z,4.50
2022-10-02T06:34:38.962Z,4.07
2022-10-02T06:35:53.654Z,6.15
2022-10-02T06:37:12.026Z,3.90
2022-10-02T06:38:32.839Z,3.08
2022-10-02T06:40:17.174Z,3.70
2022-10-02T06:41:56.939Z,2.13
2022-10-02T06:43:27.830Z,2.00
2022-10-02T06:44:37.885Z,2.33
2022-10-02T06:46:20.169Z,4.13
2022-10-02T06:48:18.119Z,1.50
2022-10-02T06:50:21.547Z,3.42
2022-10-02T06:51:32.920Z,2.30
2022-10-02T06:53:21.547Z,3.33
2022-10-02T06:54:50.000Z,4.07
2022-10-02T06:55:52.616Z,1.90
2022-10-02T06:57:29.061Z,2.65
2022-10-02T06:58:43.709Z,1.90
2022-10-02T07:00:20.266Z,2.05
2022-10-02T07:03:06.998Z,6.00
2022-10-02T07:04:46.271Z,4.07
2022-10-02T07:06:08.187Z,1.73
2022-10-02T07:07:46.223Z,1.65
2022-10-02T07:09:40.627Z,2.45
2022-10-02T07:11:24.375Z,1.77
2022-10-02T07:12:33.375Z,1.67
2022-10-02T07:13:44.747Z,1.70
2022-10-02T07:15:03.374Z,4.60
2022-10-02T07:16:31.062Z,1.95
2022-10-02T07:18:02.211Z,1.67
2022-10-02T07:21:44.908Z,3.67
2022-10-02T07:23:22.960Z,2.13
2022-10-02T07:29:17.656Z,2.00
2022-10-02T07:30:22.668Z,3.20
2022-10-02T07:31:52.283Z,1.83
2022-10-02T07:33:16.352Z,2.55
2022-10-02T07:34:34.578Z,2.55
2022-10-02T07:35:53.506Z,1.55
2022-10-02T07:37:04.351Z,3.72
2022-10-02T07:38:43.505Z,4.63
2022-10-02T07:40:04.696Z,2.55
2022-10-02T07:41:54.175Z,1.67
2022-10-02T07:43:54.516Z,1.98
2022-10-02T07:45:07.193Z,1.58
2022-10-02T07:46:35.424Z,2.03
2022-10-02T07:48:13.059Z,2.28
2022-10-02T07:49:45.464Z,3.03
2022-10-02T07:51:40.459Z,1.70
2022-10-02T07:53:10.092Z,1.40
2022-10-02T07:55:27.612Z,1.85
2022-10-02T07:56:30.982Z,1.83
2022-10-02T07:57:52.626Z,1.80
2022-10-02T07:59:04.528Z,1.52
2022-10-02T08:00:16.254Z,2.20
2022-10-02T08:01:34.654Z,2.50
2022-10-02T08:04:41.318Z,1.95
2022-10-02T08:05:49.906Z,1.70
2022-10-02T08:07:00.977Z,2.97
2022-10-02T08:08:50.809Z,2.15
2022-10-02T08:09:54.979Z,1.48
2022-10-02T08:11:12.603Z,3.47
2022-10-02T08:12:39.113Z,2.20
2022-10-02T08:13:55.714Z,1.50
2022-10-02T08:15:03.337Z,1.80
2022-10-02T08:16:08.936Z,1.52
2022-10-02T08:17:44.634Z,1.63
2022-10-02T08:18:59.872Z,1.58
2022-10-02T08:20:46.208Z,1.92
2022-10-02T08:22:40.748Z,1.77
2022-10-02T08:24:18.058Z,2.00
2022-10-02T08:25:21.512Z,2.10
2022-10-02T08:27:06.088Z,2.08
2022-10-02T08:28:44.354Z,2.38
2022-10-02T08:30:02.548Z,2.65
2022-10-02T08:31:16.363Z,2.75
2022-10-02T08:32:19.395Z,1.58
2022-10-02T08:33:23.380Z,1.55
2022-10-02T08:34:30.069Z,6.82
2022-10-02T08:35:48.516Z,1.38
2022-10-02T08:37:19.295Z,1.35
2022-10-02T08:38:41.393Z,1.40
2022-10-02T08:40:11.483Z,1.58
2022-10-02T08:41:47.015Z,1.67
2022-10-02T08:43:29.075Z,1.25
2022-10-02T08:44:49.805Z,2.10
2022-10-02T08:47:33.421Z,2.28
2022-10-02T08:49:03.027Z,3.35
2022-10-02T08:50:50.809Z,1.67
2022-10-02T08:52:14.951Z,1.30
2022-10-02T08:53:52.610Z,2.05
2022-10-02T08:55:13.004Z,2.13
2022-10-02T08:56:43.642Z,1.92
2022-10-02T08:59:35.455Z,1.38
2022-10-02T09:01:09.104Z,1.73
2022-10-02T09:04:05.529Z,1.67
2022-10-02T09:06:03.815Z,3.50
2022-10-02T09:07:38.556Z,2.65
2022-10-02T09:09:07.527Z,1.33
2022-10-02T09:12:46.378Z,2.10
2022-10-02T09:14:16.502Z,1.75
2022-10-02T09:15:38.999Z,3.30
2022-10-02T09:17:02.788Z,2.58
2022-10-02T09:18:29.576Z,1.48
2022-10-02T09:20:03.267Z,3.92
2022-10-02T09:21:27.449Z,2.58
2022-10-02T09:22:55.690Z,3.72
2022-10-02T09:24:46.850Z,1.85
2022-10-02T09:26:03.340Z,1.67
2022-10-02T09:27:24.697Z,1.60
2022-10-02T09:28:42.173Z,1.38
2022-10-02T09:30:12.397Z,1.58
2022-10-02T09:31:32.885Z,1.27
2022-10-02T09:33:15.176Z,1.63
2022-10-02T09:35:09.364Z,3.10
2022-10-02T09:36:19.170Z,3.40
2022-10-02T09:37:46.204Z,1.90
2022-10-02T09:39:13.034Z,2.30
2022-10-02T09:40:31.646Z,1.58
2022-10-02T09:41:44.508Z,2.35
2022-10-02T09:43:44.124Z,1.50
2022-10-02T09:45:19.282Z,2.67
2022-10-02T09:46:40.296Z,5.65
2022-10-02T09:48:08.870Z,1.85
2022-10-02T09:49:43.899Z,1.45
2022-10-02T09:51:14.167Z,1.73
2022-10-02T09:52:19.409Z,1.58
2022-10-02T09:53:56.210Z,6.90
2022-10-02T09:55:13.444Z,1.42
2022-10-02T09:56:40.225Z,2.38
2022-10-02T09:58:05.727Z,1.52
2022-10-02T09:59:40.828Z,3.38
2022-10-02T10:00:54.298Z,1.58
2022-10-02T10:02:30.328Z,1.48
2022-10-02T10:04:08.747Z,1.27
2022-10-02T10:05:34.303Z,1.55
2022-10-02T10:06:55.970Z,2.78
2022-10-02T10:08:28.670Z,2.00
2022-10-02T10:09:51.497Z,3.10
2022-10-02T10:11:02.789Z,2.30
2022-10-02T10:12:13.659Z,2.05
2022-10-02T10:13:47.265Z,3.45
2022-10-02T10:15:13.908Z,2.53
2022-10-02T10:17:10.687Z,1.25
2022-10-02T10:18:23.982Z,1.83
2022-10-02T10:19:53.769Z,1.65
2022-10-02T10:21:30.075Z,2.25
2022-10-02T10:22:49.628Z,1.63
2022-10-02T10:24:07.075Z,1.40
2022-10-02T10:25:38.751Z,1.55
2022-10-02T10:27:09.017Z,1.58
2022-10-02T10:28:20.300Z,1.27
2022-10-02T10:29:25.449Z,1.58
2022-10-02T10:30:36.503Z,3.15
2022-10-02T10:32:03.569Z,1.25
2022-10-02T10:33:45.483Z,1.60
2022-10-02T10:35:20.950Z,1.50
2022-10-02T10:37:09.873Z,2.08
2022-10-02T10:38:58.396Z,1.40
2022-10-02T10:40:19.543Z,1.25
2022-10-02T10:41:37.369Z,1.77
2022-10-02T10:43:16.943Z,1.67
2022-10-02T10:44:48.145Z,0.98
2022-10-02T10:46:19.295Z,1.48
2022-10-02T10:47:43.968Z,2.80
2022-10-02T10:49:09.866Z,2.40
2022-10-02T10:50:36.020Z,2.55
2022-10-02T10:51:51.500Z,4.05
2022-10-02T10:52:55.168Z,1.30
2022-10-02T10:54:22.876Z,1.02
2022-10-02T10:56:22.127Z,2.72
2022-10-02T10:57:42.541Z,0.88
2022-10-02T10:58:56.816Z,1.23
2022-10-02T11:00:39.096Z,1.67
2022-10-02T11:02:03.477Z,2.35
2022-10-02T11:03:36.767Z,0.95
2022-10-02T11:05:16.044Z,1.05
2022-10-02T11:06:46.097Z,0.63
2022-10-02T11:07:52.341Z,0.60
2022-10-02T11:09:17.644Z,0.70
2022-10-02T11:10:29.552Z,0.82
2022-10-02T11:11:41.014Z,0.73
2022-10-02T11:13:25.526Z,1.17
2022-10-02T11:14:49.661Z,5.97
2022-10-02T11:16:16.785Z,0.88
2022-10-02T11:17:25.044Z,2.85
2022-10-02T11:18:34.919Z,8.55
2022-10-02T11:20:02.640Z,2.05
2022-10-02T11:21:11.351Z,1.67
2022-10-02T11:22:19.669Z,0.60
2022-10-02T11:24:23.644Z,1.30
2022-10-02T11:25:38.888Z,0.68
2022-10-02T11:27:00.531Z,1.27
2022-10-02T11:28:22.611Z,0.50
2022-10-02T11:29:47.609Z,0.85
2022-10-02T11:31:00.734Z,0.70
2022-10-02T11:32:28.234Z,1.25
2022-10-02T11:33:30.574Z,0.75
2022-10-02T11:34:54.968Z,0.65
2022-10-02T11:36:05.638Z,0.65
2022-10-02T11:37:18.104Z,0.68
2022-10-02T11:38:33.237Z,2.05
2022-10-02T11:40:05.602Z,1.00
2022-10-02T11:41:34.566Z,1.52
2022-10-02T11:42:56.887Z,1.17
2022-10-02T11:44:13.727Z,2.03
2022-10-02T11:45:50.849Z,0.93
2022-10-02T11:47:19.872Z,3.35
2022-10-02T11:48:48.039Z,5.72
2022-10-02T11:50:35.807Z,1.33
2022-10-02T11:51:51.623Z,8.30
2022-10-02T11:53:53.137Z,1.10
2022-10-02T11:55:03.645Z,1.92
2022-10-02T11:56:35.865Z,1.92
2022-10-02T11:58:26.000Z,1.63
2022-10-02T12:00:06.889Z,1.95
2022-10-02T12:01:23.804Z,0.85
2022-10-02T12:02:47.359Z,1.20
2022-10-02T12:04:11.226Z,2.03
2022-10-02T12:05:29.806Z,1.25
2022-10-02T12:06:56.572Z,0.80
2022-10-02T12:08:38.242Z,1.25
2022-10-02T12:10:21.983Z,1.30
2022-10-02T12:11:42.301Z,1.25
2022-10-02T12:12:53.640Z,0.90
2022-10-02T12:14:18.101Z,0.70
2022-10-02T12:15:34.401Z,1.35
2022-10-02T12:16:45.940Z,1.00
2022-10-02T12:18:22.043Z,1.05
2022-10-02T12:19:32.444Z,1.33
2022-10-02T12:21:18.444Z,0.98
2022-10-02T12:22:55.148Z,3.05
2022-10-02T12:24:44.540Z,1.65
2022-10-02T12:26:11.036Z,0.95
2022-10-02T12:27:43.028Z,1.15
2022-10-02T12:29:07.326Z,2.85
2022-10-02T12:30:53.800Z,1.15
2022-10-02T12:32:08.579Z,1.05
2022-10-02T12:33:35.089Z,1.65
2022-10-02T12:34:40.294Z,0.57
2022-10-02T12:36:11.859Z,0.57
2022-10-02T12:37:17.733Z,0.60
2022-10-02T12:38:50.045Z,2.33
2022-10-02T12:40:09.445Z,1.17
2022-10-02T12:41:49.551Z,5.13
2022-10-02T12:43:20.159Z,0.60
2022-10-02T12:44:32.906Z,2.55
2022-10-02T12:45:57.786Z,3.17
2022-10-02T12:47:29.421Z,0.80
2022-10-02T12:48:54.204Z,1.10
2022-10-02T12:50:12.004Z,2.35
2022-10-02T12:51:49.667Z,2.05
2022-10-02T12:53:04.630Z,3.25
2022-10-02T12:54:10.080Z,1.17
2022-10-02T12:55:18.203Z,1.33
2022-10-02T12:56:42.689Z,2.05
2022-10-02T12:57:59.016Z,2.00
2022-10-02T12:59:01.814Z,2.25
2022-10-02T13:00:15.234Z,3.75
2022-10-02T13:01:55.344Z,3.00
2022-10-02T13:03:16.520Z,2.13
2022-10-02T13:04:40.469Z,1.00
2022-10-02T13:06:02.079Z,1.98
2022-10-02T13:07:33.990Z,4.60
2022-10-02T13:08:48.818Z,1.33
2022-10-02T13:10:15.937Z,2.83
2022-10-02T13:11:37.946Z,1.55
2022-10-02T13:12:52.388Z,4.30
2022-10-02T13:14:33.338Z,1.98
2022-10-02T13:15:49.457Z,2.15
2022-10-02T13:16:58.913Z,3.15
2022-10-02T13:18:34.034Z,2.05
2022-10-02T13:19:50.942Z,2.13
2022-10-02T13:21:24.056Z,5.90
2022-10-02T13:23:21.876Z,3.80
2022-10-02T13:25:44.503Z,1.88
2022-10-02T13:27:00.176Z,2.92
2022-10-02T13:28:23.960Z,2.58
2022-10-02T13:29:40.789Z,1.35
2022-10-02T13:31:14.800Z,2.92
2022-10-02T13:32:17.137Z,1.17
2022-10-02T13:33:56.835Z,3.90
2022-10-02T13:35:28.110Z,2.72
2022-10-02T13:36:50.676Z,3.88
2022-10-02T13:38:06.980Z,1.20
2022-10-02T13:39:35.686Z,2.55
2022-10-02T13:40:48.546Z,1.20
2022-10-02T13:42:05.799Z,3.83
2022-10-02T13:43:46.898Z,4.15
2022-10-02T13:45:08.615Z,1.38
2022-10-02T13:46:26.224Z,1.90
2022-10-02T13:47:37.754Z,1.20
2022-10-02T13:48:58.358Z,1.98
2022-10-02T13:50:31.767Z,1.58
2022-10-02T13:52:13.625Z,1.40
2022-10-02T13:53:30.849Z,2.60
2022-10-02T13:54:48.475Z,1.75
2022-10-02T13:56:04.287Z,3.65
2022-10-02T13:57:51.410Z,4.28
2022-10-02T13:59:05.524Z,2.75
2022-10-02T14:00:44.485Z,1.98
2022-10-02T14:01:55.311Z,1.60
2022-10-02T14:03:18.903Z,1.70
2022-10-02T14:05:02.520Z,2.50
2022-10-02T14:06:20.727Z,1.50
2022-10-02T14:07:49.217Z,6.10
2022-10-02T14:09:11.992Z,1.17
2022-10-02T14:10:48.901Z,1.58
2022-10-02T14:12:00.313Z,1.08
2022-10-02T14:13:33.347Z,0.88
2022-10-02T14:15:03.604Z,2.67
2022-10-02T14:16:36.626Z,3.03
2022-10-02T14:18:01.175Z,2.90
2022-10-02T14:19:23.701Z,6.13
2022-10-02T14:20:52.437Z,7.32
2022-10-02T14:22:03.613Z,3.63
2022-10-02T14:23:08.688Z,11.88
2022-10-02T14:25:00.196Z,25.92
2022-10-02T14:26:25.174Z,7.25
2022-10-02T14:27:49.438Z,2.80
2022-10-02T14:29:27.186Z,3.90
2022-10-02T14:30:49.675Z,2.90
2022-10-02T14:32:16.837Z,4.00
2022-10-02T14:33:33.099Z,2.80
2022-10-02T14:35:47.903Z,2.58
2022-10-02T14:37:11.526Z,2.08
2022-10-02T14:38:23.078Z,2.67
2022-10-02T14:39:37.733Z,4.40
2022-10-02T14:40:56.286Z,5.13
2022-10-02T14:42:21.776Z,5.43
2022-10-02T14:43:50.323Z,7.30
2022-10-02T14:45:12.983Z,8.90
2022-10-02T14:49:09.578Z,2.55
2022-10-02T14:50:40.093Z,4.22
2022-10-02T14:52:06.099Z,3.47
2022-10-02T14:53:33.853Z,7.22
2022-10-02T14:55:10.053Z,2.50
2022-10-02T14:56:25.086Z,2.83
2022-10-02T14:57:55.122Z,4.88
2022-10-02T14:59:21.685Z,4.50
2022-10-02T15:00:25.837Z,2.45
2022-10-02T15:01:30.909Z,2.90
2022-10-02T15:03:11.665Z,3.22
2022-10-02T15:04:29.467Z,6.18
2022-10-02T15:05:40.837Z,3.13
2022-10-02T15:07:07.249Z,7.10
2022-10-02T15:08:25.140Z,4.95
2022-10-02T15:09:48.258Z,2.45
2022-10-02T15:10:52.106Z,4.10
2022-10-02T15:12:06.529Z,3.70
2022-10-02T15:13:28.660Z,2.08
2022-10-02T15:14:39.587Z,2.60
2022-10-02T15:16:22.097Z,2.15
2022-10-02T15:17:56.965Z,2.22
2022-10-02T15:19:15.560Z,4.32
2022-10-02T15:21:00.891Z,3.45
2022-10-02T15:22:32.323Z,3.17
2022-10-02T15:23:42.873Z,3.05
2022-10-02T15:25:06.782Z,2.53
2022-10-02T15:26:30.905Z,6.00
2022-10-02T15:27:46.388Z,4.03
2022-10-02T15:29:06.643Z,3.70
2022-10-02T15:30:26.993Z,3.58
2022-10-02T15:31:50.593Z,3.42
2022-10-02T15:33:23.690Z,1.52
2022-10-02T15:34:37.245Z,3.58
2022-10-02T15:35:58.927Z,4.93
2022-10-02T15:37:06.624Z,5.15
2022-10-02T15:38:20.455Z,3.13
2022-10-02T15:39:37.122Z,25.58
2022-10-02T15:41:01.065Z,18.38
2022-10-02T15:42:09.470Z,9.10
2022-10-02T15:43:26.204Z,5.88
2022-10-02T15:45:06.240Z,4.80
2022-10-02T15:46:15.583Z,4.82
2022-10-02T15:47:42.483Z,4.63
2022-10-02T15:48:53.779Z,2.58
2022-10-02T15:50:08.637Z,5.20
2022-10-02T15:51:28.918Z,3.75
2022-10-02T15:52:54.506Z,2.72
2022-10-02T15:54:08.890Z,3.60
2022-10-02T15:55:38.177Z,2.55
2022-10-02T15:56:53.061Z,5.95
2022-10-02T15:58:26.463Z,4.50
2022-10-02T15:59:57.623Z,3.92
2022-10-02T16:01:09.018Z,4.68
2022-10-02T16:02:35.088Z,6.28
2022-10-02T16:03:54.441Z,6.03
2022-10-02T16:05:24.189Z,14.80
2022-10-02T16:07:14.378Z,6.70
2022-10-02T16:08:27.174Z,3.45
2022-10-02T16:09:59.406Z,4.18
2022-10-02T16:11:24.788Z,5.55
2022-10-02T16:12:39.210Z,2.55
2022-10-02T16:14:02.246Z,3.38
2022-10-02T16:15:16.667Z,4.80
2022-10-02T16:16:34.883Z,18.83
2022-10-02T16:18:04.201Z,17.23
2022-10-02T16:19:21.568Z,5.65
2022-10-02T16:20:42.819Z,4.30
2022-10-02T16:22:07.491Z,5.35
2022-10-02T16:23:35.565Z,4.43
2022-10-02T16:24:58.982Z,5.43
2022-10-02T16:26:20.561Z,3.00
2022-10-02T16:27:46.756Z,2.45
2022-10-02T16:29:11.182Z,9.95
2022-10-02T16:30:19.863Z,18.67
2022-10-02T16:31:52.522Z,17.20
2022-10-02T16:32:58.583Z,18.45
2022-10-02T16:34:39.446Z,13.82
2022-10-02T16:36:03.862Z,5.22
2022-10-02T16:37:24.521Z,9.95
2022-10-02T16:38:49.822Z,7.72
2022-10-02T16:40:19.004Z,7.47
2022-10-02T16:41:40.939Z,23.92
2022-10-02T16:42:53.455Z,17.17
2022-10-02T16:44:34.748Z,14.13
2022-10-02T16:45:43.230Z,16.20
2022-10-02T16:46:54.312Z,14.88
2022-10-02T16:48:09.682Z,16.10
2022-10-02T16:49:33.258Z,10.90
2022-10-02T16:51:07.193Z,8.65
2022-10-02T16:52:45.094Z,9.52
2022-10-02T16:54:15.887Z,7.15
2022-10-02T16:55:33.532Z,9.90
2022-10-02T16:57:05.034Z,11.75
2022-10-02T16:58:21.836Z,7.57
2022-10-02T16:59:28.202Z,9.55
2022-10-02T17:01:24.142Z,69.47
2022-10-02T17:02:43.742Z,26.55
2022-10-02T17:04:12.307Z,15.65
2022-10-02T17:05:35.047Z,13.25
2022-10-02T17:08:09.583Z,16.27
2022-10-02T17:09:19.204Z,11.40
2022-10-02T17:10:53.384Z,10.93
2022-10-02T17:12:20.141Z,11.98
2022-10-02T17:13:33.429Z,8.48
2022-10-02T17:14:53.132Z,12.05
2022-10-02T17:16:27.574Z,11.77
2022-10-02T17:17:47.830Z,11.73
2022-10-02T17:18:58.239Z,9.27
2022-10-02T17:20:04.290Z,9.13
2022-10-02T17:21:16.030Z,9.02
2022-10-02T17:22:46.633Z,11.55
2022-10-02T17:23:49.043Z,53.25
2022-10-02T17:25:02.502Z,72.95
2022-10-02T17:26:12.264Z,108.47
2022-10-02T17:27:33.209Z,59.97
2022-10-02T17:28:54.842Z,32.03
2022-10-02T17:30:09.501Z,12.32
2022-10-02T17:32:06.284Z,7.72
2022-10-02T17:33:19.910Z,11.18
2022-10-02T17:34:51.535Z,8.48
2022-10-02T17:36:01.405Z,14.05
2022-10-02T17:37:09.692Z,15.68
2022-10-02T17:38:14.842Z,10.15
2022-10-02T17:39:41.391Z,13.25
2022-10-02T17:41:20.168Z,8.32
2022-10-02T17:42:25.340Z,10.05
2022-10-02T17:43:33.268Z,8.77
2022-10-02T17:45:02.846Z,5.25
2022-10-02T17:46:20.262Z,6.05
2022-10-02T17:47:29.901Z,4.07
2022-10-02T17:48:54.895Z,4.13
2022-10-02T17:50:22.620Z,3.67
2022-10-02T17:51:52.434Z,5.68
2022-10-02T17:53:51.133Z,5.13
2022-10-02T17:55:45.997Z,4.80
2022-10-02T17:56:56.949Z,4.93
2022-10-02T17:58:22.840Z,4.88
2022-10-02T17:59:49.694Z,5.63
2022-10-02T18:01:26.077Z,4.63
2022-10-02T18:02:50.550Z,4.07
2022-10-02T18:04:08.242Z,12.13
2022-10-02T18:05:22.734Z,33.10
2022-10-02T18:06:50.586Z,17.38
2022-10-02T18:08:00.458Z,10.02
2022-10-02T18:09:15.961Z,11.38
2022-10-02T18:10:51.385Z,9.38
2022-10-02T18:13:15.492Z,9.07
2022-10-02T18:14:48.408Z,10.35
2022-10-02T18:16:04.278Z,11.75
2022-10-02T18:17:27.218Z,12.60
2022-10-02T18:19:01.066Z,12.88
2022-10-02T18:20:35.228Z,9.50
2022-10-02T18:21:53.669Z,24.27
2022-10-02T18:23:15.957Z,25.08
2022-10-02T18:24:42.507Z,14.82
2022-10-02T18:25:58.819Z,11.60
2022-10-02T18:27:23.000Z,8.68
2022-10-02T18:28:31.587Z,9.85